createdAt,value
2022-07-30T00:00:51.909Z,5.10
2022-07-30T00:03:20.220Z,5.20
2022-07-30T00:05:48.924Z,5.77
2022-07-30T00:08:17.012Z,5.50
2022-07-30T00:10:45.992Z,5.03
2022-07-30T00:13:19.225Z,5.77
2022-07-30T00:15:47.471Z,5.30
2022-07-30T00:18:17.125Z,5.53
2022-07-30T00:20:45.379Z,5.30
2022-07-30T00:23:13.910Z,6.23
2022-07-30T00:25:45.616Z,6.20
2022-07-30T00:28:13.882Z,6.23
2022-07-30T00:30:42.245Z,6.60
2022-07-30T00:33:10.779Z,5.10
2022-07-30T00:35:40.792Z,6.30
2022-07-30T00:38:09.326Z,6.63
2022-07-30T00:40:37.678Z,6.27
2022-07-30T00:43:05.858Z,5.63
2022-07-30T00:45:35.893Z,6.30
2022-07-30T00:48:04.745Z,5.90
2022-07-30T00:50:33.000Z,6.57
2022-07-30T00:53:03.133Z,6.33
2022-07-30T00:55:31.530Z,6.10
2022-07-30T00:58:03.404Z,6.30
2022-07-30T01:01:20.189Z,5.93
2022-07-30T01:03:48.802Z,6.10
2022-07-30T01:06:17.174Z,6.00
2022-07-30T01:08:46.804Z,5.63
2022-07-30T01:11:15.352Z,6.77
2022-07-30T01:13:44.208Z,8.70
2022-07-30T01:16:12.871Z,6.40
2022-07-30T01:19:05.431Z,6.47
2022-07-30T01:21:38.274Z,6.63
2022-07-30T01:24:24.343Z,6.40
2022-07-30T01:26:55.426Z,6.50
2022-07-30T01:29:25.178Z,6.13
2022-07-30T01:31:59.512Z,6.47
2022-07-30T01:34:32.171Z,5.80
2022-07-30T01:37:02.506Z,6.90
2022-07-30T01:39:32.229Z,6.13
2022-07-30T01:42:05.340Z,6.60
2022-07-30T01:44:34.061Z,6.10
2022-07-30T01:47:03.665Z,6.60
2022-07-30T01:49:35.901Z,7.10
2022-07-30T01:52:05.319Z,6.43
2022-07-30T01:54:34.795Z,7.20
2022-07-30T01:57:05.892Z,6.80
2022-07-30T01:59:36.555Z,6.60
2022-07-30T02:02:04.838Z,7.43
2022-07-30T02:08:02.094Z,6.97
2022-07-30T02:10:35.026Z,7.00
2022-07-30T02:13:07.707Z,7.57
2022-07-30T02:15:42.577Z,8.47
2022-07-30T02:18:16.049Z,7.43
2022-07-30T02:20:49.544Z,7.63
2022-07-30T02:23:19.347Z,7.57
2022-07-30T02:25:51.441Z,8.47
2022-07-30T02:28:25.235Z,8.60
2022-07-30T02:30:56.451Z,8.37
2022-07-30T02:33:30.217Z,8.57
2022-07-30T02:36:03.898Z,8.03
2022-07-30T02:38:42.306Z,7.60
2022-07-30T02:41:13.275Z,8.13
2022-07-30T02:43:44.222Z,8.00
2022-07-30T02:46:14.152Z,8.13
2022-07-30T02:49:09.497Z,8.73
2022-07-30T02:51:40.614Z,9.07
2022-07-30T02:54:10.916Z,8.33
2022-07-30T02:56:42.319Z,8.23
2022-07-30T02:59:13.771Z,8.40
2022-07-30T03:01:43.791Z,8.50
2022-07-30T03:04:14.019Z,9.50
2022-07-30T03:06:44.102Z,9.10
2022-07-30T03:09:13.579Z,8.27
2022-07-30T03:11:46.135Z,8.40
2022-07-30T03:14:15.792Z,8.53
2022-07-30T03:16:54.785Z,7.97
2022-07-30T03:19:24.799Z,8.93
2022-07-30T03:21:56.230Z,8.40
2022-07-30T03:24:25.894Z,10.30
2022-07-30T03:26:56.692Z,9.33
2022-07-30T03:29:28.718Z,8.37
2022-07-30T03:31:57.268Z,8.83
2022-07-30T03:34:26.539Z,9.70
2022-07-30T03:36:57.790Z,9.33
2022-07-30T03:39:27.899Z,9.30
2022-07-30T03:41:56.685Z,8.10
2022-07-30T03:44:28.490Z,9.23
2022-07-30T03:46:59.235Z,8.50
2022-07-30T03:49:29.317Z,9.00
2022-07-30T03:51:57.536Z,8.30
2022-07-30T03:54:26.712Z,9.80
2022-07-30T03:57:15.311Z,9.80
2022-07-30T03:59:51.730Z,8.50
2022-07-30T04:02:21.683Z,9.50
2022-07-30T04:05:05.766Z,9.87
2022-07-30T04:07:34.618Z,9.63
2022-07-30T04:10:10.926Z,9.50
2022-07-30T04:13:05.407Z,9.60
2022-07-30T04:16:37.623Z,9.30
2022-07-30T04:18:39.602Z,10.00
2022-07-30T04:21:16.091Z,11.03
2022-07-30T04:24:02.952Z,10.73
2022-07-30T04:26:36.404Z,9.83
2022-07-30T04:29:07.327Z,9.53
2022-07-30T04:31:40.344Z,11.17
2022-07-30T04:34:48.716Z,10.00
2022-07-30T04:37:22.490Z,9.93
2022-07-30T04:39:54.080Z,10.50
2022-07-30T04:42:23.210Z,10.30
2022-07-30T04:45:01.574Z,10.40
2022-07-30T04:47:36.618Z,11.17
2022-07-30T04:50:29.107Z,10.43
2022-07-30T04:52:59.446Z,11.90
2022-07-30T04:55:31.341Z,11.17
2022-07-30T04:58:02.129Z,12.43
2022-07-30T05:00:40.451Z,10.90
2022-07-30T05:03:15.459Z,12.33
2022-07-30T05:05:54.092Z,11.23
2022-07-30T05:08:25.820Z,11.57
2022-07-30T05:10:54.190Z,12.23
2022-07-30T05:13:22.544Z,11.63
2022-07-30T05:16:04.286Z,13.10
2022-07-30T05:18:33.866Z,11.60
2022-07-30T05:21:02.750Z,13.50
2022-07-30T05:23:34.212Z,13.57
2022-07-30T05:26:12.432Z,12.90
2022-07-30T05:28:44.993Z,12.30
2022-07-30T05:31:19.477Z,13.50
2022-07-30T05:33:59.172Z,13.33
2022-07-30T05:36:37.986Z,13.43
2022-07-30T05:39:06.162Z,15.50
2022-07-30T05:41:44.399Z,16.73
2022-07-30T05:44:22.083Z,16.93
2022-07-30T05:46:52.171Z,14.93
2022-07-30T05:49:22.020Z,15.20
2022-07-30T05:51:50.818Z,15.20
2022-07-30T05:54:19.569Z,15.13
2022-07-30T05:56:47.651Z,16.03
2022-07-30T05:59:20.598Z,16.00
2022-07-30T06:02:17.679Z,16.37
2022-07-30T06:05:10.380Z,15.70
2022-07-30T06:07:38.523Z,16.10
2022-07-30T06:10:08.167Z,16.10
2022-07-30T06:12:39.811Z,15.77
2022-07-30T06:15:10.068Z,15.20
2022-07-30T06:17:44.113Z,16.00
2022-07-30T06:20:41.823Z,17.10
2022-07-30T06:23:12.623Z,15.60
2022-07-30T06:26:09.584Z,17.67
2022-07-30T06:28:39.210Z,17.00
2022-07-30T06:31:16.779Z,16.37
2022-07-30T06:33:44.984Z,16.57
2022-07-30T06:36:14.924Z,18.53
2022-07-30T06:39:04.243Z,17.90
2022-07-30T06:41:52.537Z,18.70
2022-07-30T06:44:20.909Z,20.77
2022-07-30T06:47:08.652Z,19.70
2022-07-30T06:49:40.329Z,21.20
2022-07-30T06:52:18.339Z,21.90
2022-07-30T06:54:50.906Z,23.00
2022-07-30T06:57:25.732Z,23.90
2022-07-30T06:59:56.427Z,24.40
2022-07-30T07:02:37.217Z,27.37
2022-07-30T07:05:13.830Z,27.00
2022-07-30T07:07:58.246Z,25.80
2022-07-30T07:10:30.598Z,25.63
2022-07-30T07:13:31.097Z,26.47
2022-07-30T07:16:00.529Z,24.10
2022-07-30T07:18:31.303Z,22.23
2022-07-30T07:21:08.064Z,22.10
2022-07-30T07:23:41.342Z,22.43
2022-07-30T07:26:19.566Z,21.47
2022-07-30T07:28:47.724Z,21.53
2022-07-30T07:32:06.622Z,20.40
2022-07-30T07:34:06.177Z,20.93
2022-07-30T07:36:35.242Z,22.73
2022-07-30T07:39:09.666Z,21.50
2022-07-30T07:41:48.928Z,21.93
2022-07-30T07:44:20.137Z,21.23
2022-07-30T07:46:48.354Z,20.60
2022-07-30T07:49:16.755Z,20.33
2022-07-30T07:51:48.833Z,20.03
2022-07-30T07:54:22.833Z,19.17
2022-07-30T07:56:52.874Z,20.53
2022-07-30T07:59:36.157Z,21.07
2022-07-30T08:02:12.637Z,18.50
2022-07-30T08:04:54.868Z,17.20
2022-07-30T08:07:37.889Z,17.83
2022-07-30T08:10:25.627Z,17.60
2022-07-30T08:13:48.647Z,17.43
2022-07-30T08:16:19.163Z,16.87
2022-07-30T08:18:53.867Z,17.37
2022-07-30T08:21:42.045Z,15.43
2022-07-30T08:24:11.204Z,15.83
2022-07-30T08:26:40.667Z,15.60
2022-07-30T08:29:13.052Z,15.80
2022-07-30T08:31:45.275Z,14.77
2022-07-30T08:34:13.718Z,14.80
2022-07-30T08:36:42.568Z,15.30
2022-07-30T08:39:10.878Z,14.20
2022-07-30T08:41:42.143Z,16.33
2022-07-30T08:44:13.398Z,15.03
2022-07-30T08:46:47.509Z,15.37
2022-07-30T08:49:36.831Z,14.93
2022-07-30T08:52:08.623Z,14.13
2022-07-30T08:54:42.845Z,13.83
2022-07-30T08:57:15.118Z,12.70
2022-07-30T09:00:00.268Z,12.30
2022-07-30T09:02:32.224Z,11.63
2022-07-30T09:05:08.006Z,13.33
2022-07-30T09:07:37.415Z,13.97
2022-07-30T09:10:09.688Z,13.80
2022-07-30T09:12:41.761Z,12.63
2022-07-30T09:15:14.111Z,12.83
2022-07-30T09:17:54.227Z,12.30
2022-07-30T09:20:32.197Z,11.70
2022-07-30T09:23:02.463Z,12.53
2022-07-30T09:25:50.704Z,11.93
2022-07-30T09:28:38.771Z,12.30
2022-07-30T09:31:16.443Z,12.67
2022-07-30T09:34:03.405Z,11.27
2022-07-30T09:37:03.423Z,13.50
2022-07-30T09:39:56.448Z,11.03
2022-07-30T09:42:48.061Z,11.23
2022-07-30T09:45:18.495Z,46.07
2022-07-30T09:47:49.355Z,22.53
2022-07-30T09:50:29.993Z,16.87
2022-07-30T09:53:16.788Z,13.33
2022-07-30T09:55:52.547Z,68.43
2022-07-30T09:58:27.030Z,28.33
2022-07-30T10:01:00.604Z,31.77
2022-07-30T10:03:48.420Z,13.30
2022-07-30T10:06:38.132Z,12.07
2022-07-30T10:09:30.022Z,10.97
2022-07-30T10:12:00.587Z,11.63
2022-07-30T10:14:42.407Z,12.67
2022-07-30T10:17:17.424Z,13.83
2022-07-30T10:20:09.137Z,13.80
2022-07-30T10:22:50.394Z,14.20
2022-07-30T10:25:55.234Z,13.50
2022-07-30T10:28:43.536Z,12.33
2022-07-30T10:31:46.676Z,11.77
2022-07-30T10:34:42.616Z,13.53
2022-07-30T10:37:13.242Z,13.23
2022-07-30T10:39:47.094Z,12.60
2022-07-30T10:42:33.018Z,10.33
2022-07-30T10:45:18.926Z,10.40
2022-07-30T10:47:49.075Z,10.00
2022-07-30T10:50:22.740Z,9.67
2022-07-30T10:52:52.660Z,10.43
2022-07-30T10:55:37.181Z,8.63
2022-07-30T10:58:09.750Z,7.20
2022-07-30T11:01:01.457Z,6.43
2022-07-30T11:03:40.249Z,7.07
2022-07-30T11:06:30.318Z,9.10
2022-07-30T11:08:58.967Z,8.27
2022-07-30T11:12:05.463Z,8.87
2022-07-30T11:15:06.659Z,8.70
2022-07-30T11:18:01.887Z,6.97
2022-07-30T11:20:30.388Z,7.73
2022-07-30T11:23:45.787Z,8.43
2022-07-30T11:26:43.741Z,7.80
2022-07-30T11:29:34.828Z,8.23
2022-07-30T11:32:26.634Z,8.87
2022-07-30T11:35:12.368Z,8.37
2022-07-30T11:37:57.365Z,8.80
2022-07-30T11:40:31.946Z,7.20
2022-07-30T11:43:35.159Z,6.37
2022-07-30T11:46:10.161Z,5.83
2022-07-30T11:48:56.658Z,4.60
2022-07-30T11:51:25.187Z,4.87
2022-07-30T11:54:04.120Z,5.73
2022-07-30T11:56:35.590Z,5.60
2022-07-30T11:59:05.218Z,7.07
2022-07-30T12:01:34.469Z,5.90
2022-07-30T12:04:04.311Z,8.17
2022-07-30T12:06:33.505Z,9.13
2022-07-30T12:09:01.683Z,6.97
2022-07-30T12:11:35.207Z,5.70
2022-07-30T12:14:03.702Z,5.63
2022-07-30T12:16:33.478Z,5.63
2022-07-30T12:19:05.934Z,5.80
2022-07-30T12:21:34.698Z,5.83
2022-07-30T12:24:07.304Z,6.93
2022-07-30T12:26:37.358Z,5.53
2022-07-30T12:29:12.302Z,5.97
2022-07-30T12:31:41.240Z,5.10
2022-07-30T12:34:21.364Z,4.40
2022-07-30T12:36:49.464Z,5.07
2022-07-30T12:39:22.483Z,4.33
2022-07-30T12:41:53.946Z,4.03
2022-07-30T12:44:39.414Z,4.07
2022-07-30T12:47:19.260Z,4.03
2022-07-30T12:49:49.655Z,3.67
2022-07-30T12:52:27.550Z,8.00
2022-07-30T12:55:06.144Z,3.93
2022-07-30T12:57:55.167Z,4.70
2022-07-30T13:00:23.999Z,3.97
2022-07-30T13:02:52.223Z,4.83
2022-07-30T13:05:20.545Z,4.27
2022-07-30T13:07:59.296Z,3.63
2022-07-30T13:10:31.246Z,3.43
2022-07-30T13:13:02.337Z,3.10
2022-07-30T13:15:30.621Z,3.57
2022-07-30T13:17:58.835Z,3.60
2022-07-30T13:20:26.896Z,3.07
2022-07-30T13:23:01.972Z,2.93
2022-07-30T13:25:38.739Z,3.37
2022-07-30T13:28:10.122Z,3.80
2022-07-30T13:30:38.264Z,3.00
2022-07-30T13:33:06.362Z,3.10
2022-07-30T13:35:34.861Z,3.30
2022-07-30T13:38:03.089Z,3.10
2022-07-30T13:40:32.626Z,2.80
2022-07-30T13:43:01.229Z,2.90
2022-07-30T13:45:30.771Z,3.40
2022-07-30T13:47:59.370Z,3.70
2022-07-30T13:50:27.490Z,3.00
2022-07-30T13:53:01.768Z,3.17
2022-07-30T13:55:30.330Z,9.00
2022-07-30T13:58:11.935Z,7.13
2022-07-30T14:00:44.984Z,3.33
2022-07-30T14:03:13.453Z,12.23
2022-07-30T14:05:42.645Z,6.00
2022-07-30T14:08:11.894Z,3.60
2022-07-30T14:10:40.722Z,2.87
2022-07-30T14:13:11.756Z,3.33
2022-07-30T14:15:50.767Z,2.60
2022-07-30T14:18:18.917Z,2.60
2022-07-30T14:20:48.851Z,2.30
2022-07-30T14:23:17.764Z,2.17
2022-07-30T14:25:45.976Z,2.33
2022-07-30T14:28:14.350Z,8.83
2022-07-30T14:30:42.727Z,3.07
2022-07-30T14:33:12.162Z,2.60
2022-07-30T14:35:40.224Z,2.07
2022-07-30T14:38:08.305Z,2.07
2022-07-30T14:40:36.385Z,2.00
2022-07-30T14:43:04.502Z,2.00
2022-07-30T14:45:36.459Z,1.97
2022-07-30T14:48:04.908Z,1.80
2022-07-30T14:50:42.697Z,1.70
2022-07-30T14:53:22.691Z,1.63
2022-07-30T14:55:50.850Z,1.60
2022-07-30T15:01:01.121Z,1.50
2022-07-30T15:03:44.388Z,1.43
2022-07-30T15:06:15.314Z,1.40
2022-07-30T15:08:43.801Z,1.60
2022-07-30T15:11:11.893Z,2.00
2022-07-30T15:13:49.733Z,1.47
2022-07-30T15:16:18.630Z,1.83
2022-07-30T15:18:46.911Z,1.57
2022-07-30T15:21:16.374Z,1.90
2022-07-30T15:23:44.708Z,9.10
2022-07-30T15:26:12.749Z,11.07
2022-07-30T15:28:40.915Z,1.50
2022-07-30T15:31:08.977Z,1.40
2022-07-30T15:33:41.801Z,1.90
2022-07-30T15:36:11.273Z,1.80
2022-07-30T15:38:40.739Z,1.17
2022-07-30T15:41:13.146Z,1.03
2022-07-30T15:43:41.782Z,22.47
2022-07-30T15:46:09.879Z,3.03
2022-07-30T15:48:38.438Z,1.50
2022-07-30T15:51:08.381Z,1.57
2022-07-30T15:53:36.541Z,1.50
2022-07-30T15:56:06.279Z,1.67
2022-07-30T15:58:35.188Z,1.87
2022-07-30T16:01:05.146Z,1.93
2022-07-30T16:03:33.346Z,2.10
2022-07-30T16:06:01.482Z,2.33
2022-07-30T16:08:29.623Z,1.57
2022-07-30T16:10:57.709Z,4.37
2022-07-30T16:13:27.239Z,1.60
2022-07-30T16:15:55.366Z,1.90
2022-07-30T16:18:23.459Z,1.70
2022-07-30T16:20:51.561Z,1.43
2022-07-30T16:23:21.701Z,1.20
2022-07-30T16:25:50.209Z,2.10
2022-07-30T16:28:18.299Z,1.77
2022-07-30T16:30:50.827Z,5.93
2022-07-30T16:33:19.924Z,3.80
2022-07-30T16:35:49.417Z,2.30
2022-07-30T16:38:19.535Z,1.67
2022-07-30T16:40:47.889Z,1.97
2022-07-30T16:43:17.612Z,1.97
2022-07-30T16:45:50.086Z,1.97
2022-07-30T16:48:18.275Z,1.60
2022-07-30T16:50:46.544Z,1.80
2022-07-30T16:53:14.966Z,2.83
2022-07-30T16:55:43.325Z,1.93
2022-07-30T16:58:11.703Z,2.40
2022-07-30T17:00:40.010Z,2.03
2022-07-30T17:03:09.988Z,4.67
2022-07-30T17:05:45.112Z,1.60
2022-07-30T17:08:14.715Z,1.90
2022-07-30T17:10:46.642Z,1.80
2022-07-30T17:13:16.691Z,1.60
2022-07-30T17:15:46.841Z,2.27
2022-07-30T17:18:16.791Z,1.93
2022-07-30T17:20:45.472Z,1.70
2022-07-30T17:23:13.958Z,2.23
2022-07-30T17:25:42.299Z,23.73
2022-07-30T17:28:10.746Z,7.10
2022-07-30T17:30:39.465Z,2.17
2022-07-30T17:33:08.099Z,2.20
2022-07-30T17:35:37.856Z,2.20
2022-07-30T17:38:07.303Z,1.80
2022-07-30T17:40:35.669Z,2.17
2022-07-30T17:43:08.213Z,2.63
2022-07-30T17:45:37.552Z,2.60
2022-07-30T17:48:07.409Z,2.17
2022-07-30T17:50:37.527Z,2.63
2022-07-30T17:53:06.837Z,5.30
2022-07-30T17:55:35.602Z,11.37
2022-07-30T17:58:04.153Z,7.10
2022-07-30T18:00:32.772Z,2.23
2022-07-30T18:03:00.978Z,2.13
2022-07-30T18:05:29.491Z,2.53
2022-07-30T18:07:59.044Z,2.07
2022-07-30T18:10:27.601Z,2.20
2022-07-30T18:12:56.208Z,2.63
2022-07-30T18:15:24.450Z,4.97
2022-07-30T18:17:53.374Z,12.70
2022-07-30T18:20:21.653Z,31.17
2022-07-30T18:22:51.843Z,2.93
2022-07-30T18:25:23.308Z,1.83
2022-07-30T18:27:52.387Z,2.43
2022-07-30T18:30:20.802Z,2.43
2022-07-30T18:32:49.556Z,2.37
2022-07-30T18:35:18.418Z,2.03
2022-07-30T18:37:47.022Z,2.47
2022-07-30T18:40:23.738Z,2.63
2022-07-30T18:42:53.925Z,7.20
2022-07-30T18:45:26.164Z,26.17
2022-07-30T18:47:56.535Z,37.60
2022-07-30T18:50:25.245Z,2.73
2022-07-30T18:52:54.279Z,2.00
2022-07-30T18:55:22.587Z,2.50
2022-07-30T18:57:52.126Z,2.50
2022-07-30T19:00:34.171Z,3.00
2022-07-30T19:03:03.397Z,2.20
2022-07-30T19:05:31.661Z,2.60
2022-07-30T19:07:59.866Z,2.23
2022-07-30T19:10:28.243Z,2.27
2022-07-30T19:12:57.088Z,2.27
2022-07-30T19:15:26.931Z,2.23
2022-07-30T19:17:55.199Z,2.70
2022-07-30T19:20:24.490Z,4.57
2022-07-30T19:22:53.285Z,7.00
2022-07-30T19:25:21.500Z,7.10
2022-07-30T19:27:49.611Z,7.57
2022-07-30T19:30:17.702Z,8.40
2022-07-30T19:32:47.183Z,7.13
2022-07-30T19:35:15.500Z,7.07
2022-07-30T19:37:43.725Z,8.40
2022-07-30T19:40:13.014Z,10.90
2022-07-30T19:42:41.726Z,11.57
2022-07-30T19:45:13.291Z,12.30
2022-07-30T19:47:42.569Z,10.53
2022-07-30T19:50:13.311Z,7.13
2022-07-30T19:52:51.466Z,6.00
2022-07-30T19:55:35.470Z,8.10
2022-07-30T19:58:05.250Z,5.10
2022-07-30T20:00:49.446Z,4.40
2022-07-30T20:03:26.191Z,3.33
2022-07-30T20:06:01.849Z,3.50
2022-07-30T20:08:31.154Z,4.43
2022-07-30T20:11:01.446Z,5.27
2022-07-30T20:13:45.171Z,4.40
2022-07-30T20:16:15.485Z,6.50
2022-07-30T20:18:46.246Z,7.43
2022-07-30T20:21:16.688Z,8.20
2022-07-30T20:23:46.485Z,7.23
2022-07-30T20:26:15.877Z,7.90
2022-07-30T20:28:47.940Z,5.33
2022-07-30T20:31:21.224Z,4.67
2022-07-30T20:33:50.105Z,3.87
2022-07-30T20:36:22.248Z,3.37
2022-07-30T20:38:50.380Z,3.37
2022-07-30T20:41:19.607Z,3.37
2022-07-30T20:43:51.938Z,3.63
2022-07-30T20:46:22.975Z,2.83
2022-07-30T20:48:52.109Z,3.70
2022-07-30T20:51:33.494Z,5.20
2022-07-30T20:54:02.481Z,3.70
2022-07-30T20:56:31.127Z,3.40
2022-07-30T20:58:59.559Z,3.50
2022-07-30T21:01:30.803Z,3.40
2022-07-30T21:04:02.417Z,3.63
2022-07-30T21:06:34.751Z,4.20
2022-07-30T21:09:03.055Z,3.37
2022-07-30T21:11:31.764Z,4.03
2022-07-30T21:14:04.356Z,3.20
2022-07-30T21:16:37.385Z,4.73
2022-07-30T21:19:10.279Z,3.70
2022-07-30T21:21:47.987Z,3.33
2022-07-30T21:24:19.526Z,2.70
2022-07-30T21:26:49.620Z,3.23
2022-07-30T21:29:19.031Z,3.60
2022-07-30T21:32:08.889Z,3.67
2022-07-30T21:34:42.003Z,3.60
2022-07-30T21:40:01.093Z,3.10
2022-07-30T21:42:30.190Z,3.27
2022-07-30T21:44:59.299Z,3.23
2022-07-30T21:47:28.108Z,3.60
2022-07-30T21:49:56.328Z,2.77
2022-07-30T21:52:25.935Z,16.70
2022-07-30T21:54:54.239Z,9.30
2022-07-30T21:57:26.662Z,21.43
2022-07-30T21:59:59.784Z,4.50
2022-07-30T22:02:31.533Z,3.97
2022-07-30T22:05:01.228Z,3.33
2022-07-30T22:07:32.105Z,3.60
2022-07-30T22:10:00.407Z,3.70
2022-07-30T22:12:31.231Z,3.23
2022-07-30T22:15:02.237Z,4.00
2022-07-30T22:17:37.289Z,3.43
2022-07-30T22:20:19.779Z,2.97
2022-07-30T22:22:49.611Z,3.07
2022-07-30T22:25:21.511Z,2.80
2022-07-30T22:27:55.998Z,2.70
2022-07-30T22:30:26.757Z,3.40
2022-07-30T22:32:55.626Z,3.43
2022-07-30T22:35:32.094Z,3.23
2022-07-30T22:38:04.722Z,10.10
2022-07-30T22:40:33.410Z,3.07
2022-07-30T22:43:07.583Z,4.03
2022-07-30T22:45:49.031Z,3.60
2022-07-30T22:48:27.352Z,3.07
2022-07-30T22:50:56.556Z,3.47
2022-07-30T22:54:03.270Z,3.30
2022-07-30T22:57:26.679Z,3.17
2022-07-30T22:59:16.778Z,3.40
2022-07-30T23:02:05.805Z,3.03
2022-07-30T23:04:40.776Z,3.00
2022-07-30T23:07:13.982Z,2.70
2022-07-30T23:12:27.493Z,3.40
2022-07-30T23:12:34.222Z,5.80
2022-07-30T23:12:37.008Z,6.77
2022-07-30T23:15:06.109Z,7.00
2022-07-30T23:17:34.438Z,5.27
2022-07-30T23:20:02.643Z,3.50
2022-07-30T23:22:30.896Z,3.70
2022-07-30T23:25:00.409Z,3.03
2022-07-30T23:27:28.533Z,3.30
2022-07-30T23:29:56.681Z,3.40
2022-07-30T23:32:24.850Z,3.40
2022-07-30T23:34:52.984Z,3.23
2022-07-30T23:37:21.286Z,3.23
2022-07-30T23:39:49.347Z,3.53
2022-07-30T23:42:19.069Z,3.30
2022-07-30T23:44:47.138Z,3.00
2022-07-30T23:47:15.422Z,3.20
2022-07-30T23:49:44.044Z,3.33
2022-07-30T23:52:12.468Z,3.50
2022-07-30T23:54:41.100Z,2.67
2022-07-30T23:57:09.370Z,3.00
2022-07-30T23:59:41.149Z,3.17
